sensor_id;sensor_type;location;lat;lon;timestamp;P1;durP1;ratioP1;P2;durP2;ratioP2
7817;SDS011;3954;52.624;9.212;2023-04-24T00:01:15;2.13;;;1.90;;
7817;SDS011;3954;52.624;9.212;2023-04-24T00:03:42;2.07;;;1.73;;
7817;SDS011;3954;52.624;9.212;2023-04-24T00:06:08;2.13;;;1.93;;
7817;SDS011;3954;52.624;9.212;2023-04-24T00:08:34;2.50;;;2.00;;
7817;SDS011;3954;52.624;9.212;2023-04-24T00:11:02;2.47;;;1.67;;
7817;SDS011;3954;52.624;9.212;2023-04-24T00:13:28;4.30;;;1.90;;
7817;SDS011;3954;52.624;9.212;2023-04-24T00:15:54;2.13;;;1.67;;
7817;SDS011;3954;52.624;9.212;2023-04-24T00:18:21;1.70;;;1.60;;
7817;SDS011;3954;52.624;9.212;2023-04-24T00:20:47;1.63;;;1.53;;
7817;SDS011;3954;52.624;9.212;2023-04-24T00:23:13;1.87;;;1.50;;
7817;SDS011;3954;52.624;9.212;2023-04-24T00:25:39;1.60;;;1.50;;
7817;SDS011;3954;52.624;9.212;2023-04-24T00:28:06;1.87;;;1.47;;
7817;SDS011;3954;52.624;9.212;2023-04-24T00:30:32;1.57;;;1.47;;
7817;SDS011;3954;52.624;9.212;2023-04-24T00:32:58;1.60;;;1.50;;
7817;SDS011;3954;52.624;9.212;2023-04-24T00:35:24;2.10;;;1.53;;
7817;SDS011;3954;52.624;9.212;2023-04-24T00:37:50;1.50;;;1.40;;
7817;SDS011;3954;52.624;9.212;2023-04-24T00:40:16;1.40;;;1.30;;
7817;SDS011;3954;52.624;9.212;2023-04-24T00:42:43;1.40;;;1.30;;
7817;SDS011;3954;52.624;9.212;2023-04-24T00:45:11;2.13;;;1.30;;
7817;SDS011;3954;52.624;9.212;2023-04-24T00:47:38;1.37;;;1.27;;
7817;SDS011;3954;52.624;9.212;2023-04-24T00:50:04;1.53;;;1.27;;
7817;SDS011;3954;52.624;9.212;2023-04-24T00:52:31;2.13;;;1.40;;
7817;SDS011;3954;52.624;9.212;2023-04-24T00:54:57;1.50;;;1.40;;
7817;SDS011;3954;52.624;9.212;2023-04-24T00:57:23;1.83;;;1.73;;
7817;SDS011;3954;52.624;9.212;2023-04-24T00:59:50;1.10;;;1.10;;
7817;SDS011;3954;52.624;9.212;2023-04-24T01:02:17;1.53;;;1.43;;
7817;SDS011;3954;52.624;9.212;2023-04-24T01:04:43;1.47;;;1.37;;
7817;SDS011;3954;52.624;9.212;2023-04-24T01:07:09;1.40;;;1.30;;
7817;SDS011;3954;52.624;9.212;2023-04-24T01:09:36;1.30;;;1.20;;
7817;SDS011;3954;52.624;9.212;2023-04-24T01:12:02;1.70;;;1.37;;
7817;SDS011;3954;52.624;9.212;2023-04-24T01:14:29;1.40;;;1.27;;
7817;SDS011;3954;52.624;9.212;2023-04-24T01:16:55;1.00;;;1.00;;
7817;SDS011;3954;52.624;9.212;2023-04-24T01:19:23;1.20;;;1.10;;
7817;SDS011;3954;52.624;9.212;2023-04-24T01:21:50;1.00;;;0.97;;
7817;SDS011;3954;52.624;9.212;2023-04-24T01:24:18;1.00;;;1.00;;
7817;SDS011;3954;52.624;9.212;2023-04-24T01:26:44;0.90;;;0.90;;
7817;SDS011;3954;52.624;9.212;2023-04-24T01:29:10;1.77;;;1.10;;
7817;SDS011;3954;52.624;9.212;2023-04-24T01:31:37;1.00;;;0.90;;
7817;SDS011;3954;52.624;9.212;2023-04-24T01:34:03;1.10;;;1.10;;
7817;SDS011;3954;52.624;9.212;2023-04-24T01:36:29;1.70;;;1.13;;
7817;SDS011;3954;52.624;9.212;2023-04-24T01:38:56;1.70;;;1.20;;
7817;SDS011;3954;52.624;9.212;2023-04-24T01:41:23;1.20;;;1.10;;
7817;SDS011;3954;52.624;9.212;2023-04-24T01:43:50;1.97;;;1.00;;
7817;SDS011;3954;52.624;9.212;2023-04-24T01:46:16;1.00;;;1.00;;
7817;SDS011;3954;52.624;9.212;2023-04-24T01:48:42;1.10;;;1.10;;
7817;SDS011;3954;52.624;9.212;2023-04-24T01:51:10;2.13;;;1.10;;
7817;SDS011;3954;52.624;9.212;2023-04-24T01:53:36;1.03;;;1.03;;
7817;SDS011;3954;52.624;9.212;2023-04-24T01:56:02;1.13;;;1.07;;
7817;SDS011;3954;52.624;9.212;2023-04-24T01:58:29;1.00;;;1.00;;
7817;SDS011;3954;52.624;9.212;2023-04-24T02:00:55;1.23;;;1.10;;
7817;SDS011;3954;52.624;9.212;2023-04-24T02:03:22;1.27;;;1.20;;
7817;SDS011;3954;52.624;9.212;2023-04-24T02:05:48;1.20;;;1.10;;
7817;SDS011;3954;52.624;9.212;2023-04-24T02:08:14;1.20;;;1.20;;
7817;SDS011;3954;52.624;9.212;2023-04-24T02:10:40;1.30;;;1.20;;
7817;SDS011;3954;52.624;9.212;2023-04-24T02:13:06;1.83;;;1.30;;
7817;SDS011;3954;52.624;9.212;2023-04-24T02:15:33;1.30;;;1.20;;
7817;SDS011;3954;52.624;9.212;2023-04-24T02:18:00;1.07;;;1.07;;
7817;SDS011;3954;52.624;9.212;2023-04-24T02:20:27;1.40;;;1.30;;
7817;SDS011;3954;52.624;9.212;2023-04-24T02:22:53;1.03;;;1.00;;
7817;SDS011;3954;52.624;9.212;2023-04-24T02:25:19;1.17;;;1.07;;
7817;SDS011;3954;52.624;9.212;2023-04-24T02:27:45;1.20;;;1.10;;
7817;SDS011;3954;52.624;9.212;2023-04-24T02:30:11;1.30;;;1.20;;
7817;SDS011;3954;52.624;9.212;2023-04-24T02:32:38;1.30;;;1.20;;
7817;SDS011;3954;52.624;9.212;2023-04-24T02:35:04;1.20;;;1.10;;
7817;SDS011;3954;52.624;9.212;2023-04-24T02:37:31;1.00;;;1.00;;
7817;SDS011;3954;52.624;9.212;2023-04-24T02:39:57;2.07;;;1.20;;
7817;SDS011;3954;52.624;9.212;2023-04-24T02:42:23;2.73;;;1.30;;
7817;SDS011;3954;52.624;9.212;2023-04-24T02:44:49;1.20;;;1.10;;
7817;SDS011;3954;52.624;9.212;2023-04-24T02:47:16;1.20;;;1.10;;
7817;SDS011;3954;52.624;9.212;2023-04-24T02:49:43;1.70;;;1.00;;
7817;SDS011;3954;52.624;9.212;2023-04-24T02:52:09;0.93;;;0.93;;
7817;SDS011;3954;52.624;9.212;2023-04-24T02:54:35;1.03;;;1.03;;
7817;SDS011;3954;52.624;9.212;2023-04-24T02:57:01;1.17;;;1.00;;
7817;SDS011;3954;52.624;9.212;2023-04-24T02:59:27;3.27;;;1.13;;
7817;SDS011;3954;52.624;9.212;2023-04-24T03:01:53;1.00;;;1.00;;
7817;SDS011;3954;52.624;9.212;2023-04-24T03:04:19;1.53;;;1.20;;
7817;SDS011;3954;52.624;9.212;2023-04-24T03:06:48;1.03;;;1.03;;
7817;SDS011;3954;52.624;9.212;2023-04-24T03:09:17;1.20;;;1.10;;
7817;SDS011;3954;52.624;9.212;2023-04-24T03:11:43;1.10;;;1.00;;
7817;SDS011;3954;52.624;9.212;2023-04-24T03:14:09;1.13;;;1.10;;
7817;SDS011;3954;52.624;9.212;2023-04-24T03:16:35;1.40;;;1.07;;
7817;SDS011;3954;52.624;9.212;2023-04-24T03:19:01;1.27;;;1.00;;
7817;SDS011;3954;52.624;9.212;2023-04-24T03:21:27;1.00;;;0.90;;
7817;SDS011;3954;52.624;9.212;2023-04-24T03:23:55;1.20;;;1.10;;
7817;SDS011;3954;52.624;9.212;2023-04-24T03:26:21;1.47;;;1.37;;
7817;SDS011;3954;52.624;9.212;2023-04-24T03:28:47;1.13;;;1.10;;
7817;SDS011;3954;52.624;9.212;2023-04-24T03:31:13;0.93;;;0.93;;
7817;SDS011;3954;52.624;9.212;2023-04-24T03:33:40;1.37;;;1.20;;
7817;SDS011;3954;52.624;9.212;2023-04-24T03:36:06;1.40;;;1.30;;
7817;SDS011;3954;52.624;9.212;2023-04-24T03:38:32;1.00;;;1.00;;
7817;SDS011;3954;52.624;9.212;2023-04-24T03:40:59;1.40;;;1.30;;
7817;SDS011;3954;52.624;9.212;2023-04-24T03:43:26;1.10;;;1.10;;
7817;SDS011;3954;52.624;9.212;2023-04-24T03:45:52;2.00;;;1.20;;
7817;SDS011;3954;52.624;9.212;2023-04-24T03:48:18;2.10;;;1.27;;
7817;SDS011;3954;52.624;9.212;2023-04-24T03:50:44;1.40;;;1.30;;
7817;SDS011;3954;52.624;9.212;2023-04-24T03:53:10;1.83;;;1.20;;
7817;SDS011;3954;52.624;9.212;2023-04-24T03:55:36;2.87;;;1.50;;
7817;SDS011;3954;52.624;9.212;2023-04-24T03:58:04;3.37;;;1.70;;
7817;SDS011;3954;52.624;9.212;2023-04-24T04:00:30;1.93;;;1.73;;
7817;SDS011;3954;52.624;9.212;2023-04-24T04:02:57;1.50;;;1.40;;
7817;SDS011;3954;52.624;9.212;2023-04-24T04:05:23;1.50;;;1.40;;
7817;SDS011;3954;52.624;9.212;2023-04-24T04:07:49;1.67;;;1.57;;
7817;SDS011;3954;52.624;9.212;2023-04-24T04:10:15;3.10;;;1.70;;
7817;SDS011;3954;52.624;9.212;2023-04-24T04:12:42;1.70;;;1.60;;
7817;SDS011;3954;52.624;9.212;2023-04-24T04:15:10;1.63;;;1.53;;
7817;SDS011;3954;52.624;9.212;2023-04-24T04:17:36;2.37;;;1.80;;
7817;SDS011;3954;52.624;9.212;2023-04-24T04:20:03;2.13;;;1.93;;
7817;SDS011;3954;52.624;9.212;2023-04-24T04:22:33;1.67;;;1.57;;
7817;SDS011;3954;52.624;9.212;2023-04-24T04:24:59;2.60;;;1.80;;
7817;SDS011;3954;52.624;9.212;2023-04-24T04:27:25;2.03;;;1.90;;
7817;SDS011;3954;52.624;9.212;2023-04-24T04:29:51;1.90;;;1.70;;
7817;SDS011;3954;52.624;9.212;2023-04-24T04:32:19;5.00;;;1.80;;
7817;SDS011;3954;52.624;9.212;2023-04-24T04:34:45;2.33;;;1.70;;
7817;SDS011;3954;52.624;9.212;2023-04-24T04:37:11;2.27;;;1.70;;
7817;SDS011;3954;52.624;9.212;2023-04-24T04:39:38;2.53;;;1.80;;
7817;SDS011;3954;52.624;9.212;2023-04-24T04:42:04;1.97;;;1.73;;
7817;SDS011;3954;52.624;9.212;2023-04-24T04:44:31;2.00;;;1.90;;
7817;SDS011;3954;52.624;9.212;2023-04-24T04:46:57;2.47;;;1.70;;
7817;SDS011;3954;52.624;9.212;2023-04-24T04:49:26;1.60;;;1.50;;
7817;SDS011;3954;52.624;9.212;2023-04-24T04:51:53;2.13;;;1.70;;
7817;SDS011;3954;52.624;9.212;2023-04-24T04:54:19;3.50;;;1.90;;
7817;SDS011;3954;52.624;9.212;2023-04-24T04:56:45;2.00;;;1.80;;
7817;SDS011;3954;52.624;9.212;2023-04-24T04:59:11;1.70;;;1.60;;
7817;SDS011;3954;52.624;9.212;2023-04-24T05:01:37;2.43;;;1.90;;
7817;SDS011;3954;52.624;9.212;2023-04-24T05:04:03;1.50;;;1.40;;
7817;SDS011;3954;52.624;9.212;2023-04-24T05:06:30;1.60;;;1.50;;
7817;SDS011;3954;52.624;9.212;2023-04-24T05:08:56;1.70;;;1.60;;
7817;SDS011;3954;52.624;9.212;2023-04-24T05:11:22;1.70;;;1.60;;
7817;SDS011;3954;52.624;9.212;2023-04-24T05:13:48;1.50;;;1.40;;
7817;SDS011;3954;52.624;9.212;2023-04-24T05:16:15;1.80;;;1.50;;
7817;SDS011;3954;52.624;9.212;2023-04-24T05:18:41;2.10;;;1.83;;
7817;SDS011;3954;52.624;9.212;2023-04-24T05:21:07;2.23;;;1.53;;
7817;SDS011;3954;52.624;9.212;2023-04-24T05:23:34;1.70;;;1.60;;
7817;SDS011;3954;52.624;9.212;2023-04-24T05:26:00;1.80;;;1.70;;
7817;SDS011;3954;52.624;9.212;2023-04-24T05:28:26;1.70;;;1.60;;
7817;SDS011;3954;52.624;9.212;2023-04-24T05:30:53;1.70;;;1.60;;
7817;SDS011;3954;52.624;9.212;2023-04-24T05:33:20;1.77;;;1.60;;
7817;SDS011;3954;52.624;9.212;2023-04-24T05:35:47;3.63;;;1.90;;
7817;SDS011;3954;52.624;9.212;2023-04-24T05:38:12;2.77;;;2.07;;
7817;SDS011;3954;52.624;9.212;2023-04-24T05:40:40;1.90;;;1.80;;
7817;SDS011;3954;52.624;9.212;2023-04-24T05:43:06;2.10;;;1.90;;
7817;SDS011;3954;52.624;9.212;2023-04-24T05:45:32;2.23;;;1.80;;
7817;SDS011;3954;52.624;9.212;2023-04-24T05:48:00;2.70;;;2.03;;
7817;SDS011;3954;52.624;9.212;2023-04-24T05:50:27;3.90;;;2.30;;
7817;SDS011;3954;52.624;9.212;2023-04-24T05:52:52;2.47;;;2.27;;
7817;SDS011;3954;52.624;9.212;2023-04-24T05:55:19;2.30;;;2.10;;
7817;SDS011;3954;52.624;9.212;2023-04-24T05:57:46;4.00;;;2.40;;
7817;SDS011;3954;52.624;9.212;2023-04-24T06:00:12;2.60;;;2.20;;
7817;SDS011;3954;52.624;9.212;2023-04-24T06:02:38;2.73;;;2.53;;
7817;SDS011;3954;52.624;9.212;2023-04-24T06:05:04;3.13;;;2.60;;
7817;SDS011;3954;52.624;9.212;2023-04-24T06:07:31;2.93;;;2.60;;
7817;SDS011;3954;52.624;9.212;2023-04-24T06:09:57;3.27;;;3.03;;
7817;SDS011;3954;52.624;9.212;2023-04-24T06:12:23;2.87;;;2.60;;
7817;SDS011;3954;52.624;9.212;2023-04-24T06:14:50;3.57;;;2.80;;
7817;SDS011;3954;52.624;9.212;2023-04-24T06:17:16;3.77;;;2.80;;
7817;SDS011;3954;52.624;9.212;2023-04-24T06:19:42;4.43;;;3.13;;
7817;SDS011;3954;52.624;9.212;2023-04-24T06:22:08;3.53;;;3.23;;
7817;SDS011;3954;52.624;9.212;2023-04-24T06:24:34;4.00;;;3.70;;
7817;SDS011;3954;52.624;9.212;2023-04-24T06:27:01;4.50;;;4.03;;
7817;SDS011;3954;52.624;9.212;2023-04-24T06:29:27;4.07;;;3.30;;
7817;SDS011;3954;52.624;9.212;2023-04-24T06:31:55;3.93;;;3.53;;
7817;SDS011;3954;52.624;9.212;2023-04-24T06:34:21;4.87;;;4.37;;
7817;SDS011;3954;52.624;9.212;2023-04-24T06:36:47;6.20;;;5.63;;
7817;SDS011;3954;52.624;9.212;2023-04-24T06:39:13;8.40;;;7.60;;
7817;SDS011;3954;52.624;9.212;2023-04-24T06:41:39;8.37;;;7.57;;
7817;SDS011;3954;52.624;9.212;2023-04-24T06:44:05;8.80;;;7.90;;
7817;SDS011;3954;52.624;9.212;2023-04-24T06:46:31;9.70;;;8.70;;
7817;SDS011;3954;52.624;9.212;2023-04-24T06:48:59;9.20;;;8.27;;
7817;SDS011;3954;52.624;9.212;2023-04-24T06:51:26;8.97;;;8.23;;
7817;SDS011;3954;52.624;9.212;2023-04-24T06:53:52;8.77;;;7.87;;
7817;SDS011;3954;52.624;9.212;2023-04-24T06:56:18;9.17;;;8.20;;
7817;SDS011;3954;52.624;9.212;2023-04-24T06:58:45;9.30;;;8.27;;
7817;SDS011;3954;52.624;9.212;2023-04-24T07:01:11;8.47;;;7.50;;
7817;SDS011;3954;52.624;9.212;2023-04-24T07:03:37;9.63;;;8.20;;
7817;SDS011;3954;52.624;9.212;2023-04-24T07:06:05;8.60;;;7.67;;
7817;SDS011;3954;52.624;9.212;2023-04-24T07:08:31;10.20;;;7.80;;
7817;SDS011;3954;52.624;9.212;2023-04-24T07:10:58;11.73;;;8.10;;
7817;SDS011;3954;52.624;9.212;2023-04-24T07:13:24;8.20;;;7.17;;
7817;SDS011;3954;52.624;9.212;2023-04-24T07:15:51;8.60;;;7.70;;
7817;SDS011;3954;52.624;9.212;2023-04-24T07:18:18;8.17;;;7.47;;
7817;SDS011;3954;52.624;9.212;2023-04-24T07:20:44;10.27;;;8.00;;
7817;SDS011;3954;52.624;9.212;2023-04-24T07:23:12;7.40;;;6.80;;
7817;SDS011;3954;52.624;9.212;2023-04-24T07:25:38;10.00;;;7.63;;
7817;SDS011;3954;52.624;9.212;2023-04-24T07:28:04;9.17;;;7.17;;
7817;SDS011;3954;52.624;9.212;2023-04-24T07:30:31;8.60;;;7.13;;
7817;SDS011;3954;52.624;9.212;2023-04-24T07:32:58;10.50;;;7.70;;
7817;SDS011;3954;52.624;9.212;2023-04-24T07:35:24;8.93;;;8.13;;
7817;SDS011;3954;52.624;9.212;2023-04-24T07:37:53;8.87;;;7.90;;
7817;SDS011;3954;52.624;9.212;2023-04-24T07:40:20;9.07;;;8.17;;
7817;SDS011;3954;52.624;9.212;2023-04-24T07:42:47;8.90;;;8.00;;
7817;SDS011;3954;52.624;9.212;2023-04-24T07:45:13;8.80;;;7.90;;
7817;SDS011;3954;52.624;9.212;2023-04-24T07:47:39;9.63;;;7.60;;
7817;SDS011;3954;52.624;9.212;2023-04-24T07:50:09;10.07;;;7.80;;
7817;SDS011;3954;52.624;9.212;2023-04-24T07:52:35;11.00;;;8.60;;
7817;SDS011;3954;52.624;9.212;2023-04-24T07:55:01;9.77;;;8.47;;
7817;SDS011;3954;52.624;9.212;2023-04-24T07:57:29;9.67;;;8.47;;
7817;SDS011;3954;52.624;9.212;2023-04-24T07:59:55;10.10;;;7.93;;
7817;SDS011;3954;52.624;9.212;2023-04-24T08:02:21;10.47;;;7.80;;
7817;SDS011;3954;52.624;9.212;2023-04-24T08:04:51;10.63;;;8.07;;
7817;SDS011;3954;52.624;9.212;2023-04-24T08:07:17;8.73;;;7.93;;
7817;SDS011;3954;52.624;9.212;2023-04-24T08:09:43;8.50;;;7.60;;
7817;SDS011;3954;52.624;9.212;2023-04-24T08:12:09;8.10;;;7.37;;
7817;SDS011;3954;52.624;9.212;2023-04-24T08:14:37;8.33;;;7.53;;
7817;SDS011;3954;52.624;9.212;2023-04-24T08:17:03;9.20;;;8.13;;
7817;SDS011;3954;52.624;9.212;2023-04-24T08:19:29;9.73;;;7.50;;
7817;SDS011;3954;52.624;9.212;2023-04-24T08:21:55;9.13;;;8.03;;
7817;SDS011;3954;52.624;9.212;2023-04-24T08:24:21;8.23;;;7.53;;
7817;SDS011;3954;52.624;9.212;2023-04-24T08:26:47;10.93;;;8.37;;
7817;SDS011;3954;52.624;9.212;2023-04-24T08:29:17;8.23;;;7.53;;
7817;SDS011;3954;52.624;9.212;2023-04-24T08:31:44;8.27;;;7.47;;
7817;SDS011;3954;52.624;9.212;2023-04-24T08:34:10;10.17;;;7.13;;
7817;SDS011;3954;52.624;9.212;2023-04-24T08:36:36;8.80;;;7.80;;
7817;SDS011;3954;52.624;9.212;2023-04-24T08:39:02;8.40;;;7.60;;
7817;SDS011;3954;52.624;9.212;2023-04-24T08:41:29;10.27;;;7.50;;
7817;SDS011;3954;52.624;9.212;2023-04-24T08:43:55;7.97;;;7.20;;
7817;SDS011;3954;52.624;9.212;2023-04-24T08:46:23;8.73;;;7.83;;
7817;SDS011;3954;52.624;9.212;2023-04-24T08:48:51;8.03;;;7.17;;
7817;SDS011;3954;52.624;9.212;2023-04-24T08:51:17;9.80;;;7.93;;
7817;SDS011;3954;52.624;9.212;2023-04-24T08:53:44;8.37;;;6.97;;
7817;SDS011;3954;52.624;9.212;2023-04-24T08:56:11;8.33;;;7.50;;
7817;SDS011;3954;52.624;9.212;2023-04-24T08:58:37;8.80;;;7.90;;
7817;SDS011;3954;52.624;9.212;2023-04-24T09:01:04;8.23;;;7.43;;
7817;SDS011;3954;52.624;9.212;2023-04-24T09:03:31;7.23;;;6.53;;
7817;SDS011;3954;52.624;9.212;2023-04-24T09:05:58;6.90;;;6.30;;
7817;SDS011;3954;52.624;9.212;2023-04-24T09:08:25;7.33;;;6.60;;
7817;SDS011;3954;52.624;9.212;2023-04-24T09:10:51;7.87;;;7.10;;
7817;SDS011;3954;52.624;9.212;2023-04-24T09:13:18;7.80;;;6.60;;
7817;SDS011;3954;52.624;9.212;2023-04-24T09:15:44;8.47;;;7.33;;
7817;SDS011;3954;52.624;9.212;2023-04-24T09:18:10;6.90;;;6.20;;
7817;SDS011;3954;52.624;9.212;2023-04-24T09:20:51;7.23;;;6.63;;
7817;SDS011;3954;52.624;9.212;2023-04-24T09:23:23;11.03;;;7.00;;
7817;SDS011;3954;52.624;9.212;2023-04-24T09:25:53;7.30;;;6.53;;
7817;SDS011;3954;52.624;9.212;2023-04-24T09:28:22;7.40;;;6.57;;
7817;SDS011;3954;52.624;9.212;2023-04-24T09:30:55;7.50;;;6.40;;
7817;SDS011;3954;52.624;9.212;2023-04-24T09:33:27;8.13;;;6.37;;
7817;SDS011;3954;52.624;9.212;2023-04-24T09:35:53;6.17;;;5.63;;
7817;SDS011;3954;52.624;9.212;2023-04-24T09:38:19;6.30;;;5.60;;
7817;SDS011;3954;52.624;9.212;2023-04-24T09:40:57;7.50;;;6.00;;
7817;SDS011;3954;52.624;9.212;2023-04-24T09:43:25;6.37;;;5.83;;
7817;SDS011;3954;52.624;9.212;2023-04-24T09:45:52;7.53;;;5.83;;
7817;SDS011;3954;52.624;9.212;2023-04-24T09:48:29;5.70;;;5.23;;
7817;SDS011;3954;52.624;9.212;2023-04-24T09:50:56;5.73;;;5.20;;
7817;SDS011;3954;52.624;9.212;2023-04-24T09:53:23;5.23;;;4.73;;
7817;SDS011;3954;52.624;9.212;2023-04-24T09:55:49;6.50;;;4.53;;
7817;SDS011;3954;52.624;9.212;2023-04-24T09:58:16;4.90;;;4.47;;
7817;SDS011;3954;52.624;9.212;2023-04-24T10:00:42;4.93;;;4.43;;
7817;SDS011;3954;52.624;9.212;2023-04-24T10:03:11;6.70;;;4.50;;
7817;SDS011;3954;52.624;9.212;2023-04-24T10:05:37;5.43;;;3.87;;
7817;SDS011;3954;52.624;9.212;2023-04-24T10:08:10;3.80;;;3.50;;
7817;SDS011;3954;52.624;9.212;2023-04-24T10:10:38;4.47;;;4.07;;
7817;SDS011;3954;52.624;9.212;2023-04-24T10:13:05;3.90;;;3.60;;
7817;SDS011;3954;52.624;9.212;2023-04-24T10:15:33;4.30;;;3.90;;
7817;SDS011;3954;52.624;9.212;2023-04-24T10:17:59;3.63;;;3.30;;
7817;SDS011;3954;52.624;9.212;2023-04-24T10:20:25;3.93;;;3.53;;
7817;SDS011;3954;52.624;9.212;2023-04-24T10:22:53;4.50;;;3.60;;
7817;SDS011;3954;52.624;9.212;2023-04-24T10:25:19;3.90;;;3.60;;
7817;SDS011;3954;52.624;9.212;2023-04-24T10:27:46;4.90;;;4.40;;
7817;SDS011;3954;52.624;9.212;2023-04-24T10:30:12;3.90;;;3.13;;
7817;SDS011;3954;52.624;9.212;2023-04-24T10:32:40;4.00;;;3.10;;
7817;SDS011;3954;52.624;9.212;2023-04-24T10:35:06;3.67;;;3.33;;
7817;SDS011;3954;52.624;9.212;2023-04-24T10:37:34;3.60;;;3.30;;
7817;SDS011;3954;52.624;9.212;2023-04-24T10:40:00;4.30;;;3.03;;
7817;SDS011;3954;52.624;9.212;2023-04-24T10:42:27;3.37;;;2.73;;
7817;SDS011;3954;52.624;9.212;2023-04-24T10:44:53;3.27;;;2.93;;
7817;SDS011;3954;52.624;9.212;2023-04-24T10:47:20;3.20;;;2.60;;
7817;SDS011;3954;52.624;9.212;2023-04-24T10:49:47;2.73;;;2.53;;
7817;SDS011;3954;52.624;9.212;2023-04-24T10:52:16;2.47;;;2.33;;
7817;SDS011;3954;52.624;9.212;2023-04-24T10:54:44;3.73;;;2.93;;
7817;SDS011;3954;52.624;9.212;2023-04-24T10:57:26;3.20;;;2.73;;
7817;SDS011;3954;52.624;9.212;2023-04-24T11:00:09;3.03;;;2.47;;
7817;SDS011;3954;52.624;9.212;2023-04-24T11:02:38;2.73;;;2.53;;
7817;SDS011;3954;52.624;9.212;2023-04-24T11:05:07;2.30;;;2.10;;
7817;SDS011;3954;52.624;9.212;2023-04-24T11:07:47;2.30;;;2.10;;
7817;SDS011;3954;52.624;9.212;2023-04-24T11:10:33;2.60;;;2.40;;
7817;SDS011;3954;52.624;9.212;2023-04-24T11:12:59;3.07;;;2.87;;
7817;SDS011;3954;52.624;9.212;2023-04-24T11:15:27;3.27;;;2.40;;
7817;SDS011;3954;52.624;9.212;2023-04-24T11:17:55;2.80;;;2.60;;
7817;SDS011;3954;52.624;9.212;2023-04-24T11:20:23;2.50;;;2.30;;
7817;SDS011;3954;52.624;9.212;2023-04-24T11:22:52;2.80;;;2.50;;
7817;SDS011;3954;52.624;9.212;2023-04-24T11:25:19;2.77;;;2.57;;
7817;SDS011;3954;52.624;9.212;2023-04-24T11:27:47;2.60;;;2.40;;
7817;SDS011;3954;52.624;9.212;2023-04-24T11:30:16;3.47;;;2.57;;
7817;SDS011;3954;52.624;9.212;2023-04-24T11:32:43;2.60;;;2.40;;
7817;SDS011;3954;52.624;9.212;2023-04-24T11:35:12;2.77;;;2.57;;
7817;SDS011;3954;52.624;9.212;2023-04-24T11:37:42;2.80;;;2.60;;
7817;SDS011;3954;52.624;9.212;2023-04-24T11:40:09;2.50;;;2.30;;
7817;SDS011;3954;52.624;9.212;2023-04-24T11:42:36;2.60;;;2.40;;
7817;SDS011;3954;52.624;9.212;2023-04-24T11:45:02;3.37;;;2.80;;
7817;SDS011;3954;52.624;9.212;2023-04-24T11:47:33;2.93;;;2.63;;
7817;SDS011;3954;52.624;9.212;2023-04-24T11:49:59;3.00;;;2.80;;
7817;SDS011;3954;52.624;9.212;2023-04-24T11:52:25;3.20;;;3.00;;
7817;SDS011;3954;52.624;9.212;2023-04-24T11:54:53;4.43;;;3.33;;
7817;SDS011;3954;52.624;9.212;2023-04-24T11:57:19;3.83;;;2.90;;
7817;SDS011;3954;52.624;9.212;2023-04-24T11:59:46;3.60;;;3.10;;
7817;SDS011;3954;52.624;9.212;2023-04-24T12:02:19;3.23;;;2.50;;
7817;SDS011;3954;52.624;9.212;2023-04-24T12:04:45;2.60;;;2.40;;
7817;SDS011;3954;52.624;9.212;2023-04-24T12:07:11;2.20;;;2.10;;
7817;SDS011;3954;52.624;9.212;2023-04-24T12:09:40;2.47;;;2.27;;
7817;SDS011;3954;52.624;9.212;2023-04-24T12:12:09;2.90;;;2.60;;
7817;SDS011;3954;52.624;9.212;2023-04-24T12:14:41;2.83;;;2.63;;
7817;SDS011;3954;52.624;9.212;2023-04-24T12:17:07;3.10;;;2.90;;
7817;SDS011;3954;52.624;9.212;2023-04-24T12:19:33;3.20;;;3.00;;
7817;SDS011;3954;52.624;9.212;2023-04-24T12:22:00;3.03;;;2.70;;
7817;SDS011;3954;52.624;9.212;2023-04-24T12:24:26;2.70;;;2.50;;
7817;SDS011;3954;52.624;9.212;2023-04-24T12:26:52;2.40;;;2.30;;
7817;SDS011;3954;52.624;9.212;2023-04-24T12:29:20;2.40;;;2.20;;
7817;SDS011;3954;52.624;9.212;2023-04-24T12:31:46;2.40;;;2.20;;
7817;SDS011;3954;52.624;9.212;2023-04-24T12:34:17;2.70;;;2.30;;
7817;SDS011;3954;52.624;9.212;2023-04-24T12:36:43;3.00;;;2.27;;
7817;SDS011;3954;52.624;9.212;2023-04-24T12:39:14;2.43;;;2.27;;
7817;SDS011;3954;52.624;9.212;2023-04-24T12:41:48;2.20;;;2.00;;
7817;SDS011;3954;52.624;9.212;2023-04-24T12:44:15;2.30;;;2.20;;
7817;SDS011;3954;52.624;9.212;2023-04-24T12:46:42;2.17;;;1.97;;
7817;SDS011;3954;52.624;9.212;2023-04-24T12:49:08;2.47;;;2.27;;
7817;SDS011;3954;52.624;9.212;2023-04-24T12:51:35;2.17;;;2.00;;
7817;SDS011;3954;52.624;9.212;2023-04-24T12:54:01;2.20;;;2.10;;
7817;SDS011;3954;52.624;9.212;2023-04-24T12:56:27;2.00;;;1.90;;
7817;SDS011;3954;52.624;9.212;2023-04-24T12:58:53;1.40;;;1.30;;
7817;SDS011;3954;52.624;9.212;2023-04-24T13:01:19;2.43;;;1.40;;
7817;SDS011;3954;52.624;9.212;2023-04-24T13:03:46;1.20;;;1.10;;
7817;SDS011;3954;52.624;9.212;2023-04-24T13:06:12;1.30;;;1.27;;
7817;SDS011;3954;52.624;9.212;2023-04-24T13:08:38;1.40;;;1.30;;
7817;SDS011;3954;52.624;9.212;2023-04-24T13:11:04;1.77;;;1.50;;
7817;SDS011;3954;52.624;9.212;2023-04-24T13:13:30;1.60;;;1.47;;
7817;SDS011;3954;52.624;9.212;2023-04-24T13:15:56;2.10;;;1.80;;
7817;SDS011;3954;52.624;9.212;2023-04-24T13:18:22;2.30;;;1.97;;
7817;SDS011;3954;52.624;9.212;2023-04-24T13:20:50;2.10;;;1.90;;
7817;SDS011;3954;52.624;9.212;2023-04-24T13:23:16;2.97;;;2.00;;
7817;SDS011;3954;52.624;9.212;2023-04-24T13:25:42;2.83;;;2.00;;
7817;SDS011;3954;52.624;9.212;2023-04-24T13:28:08;3.10;;;2.80;;
7817;SDS011;3954;52.624;9.212;2023-04-24T13:30:34;2.67;;;2.47;;
7817;SDS011;3954;52.624;9.212;2023-04-24T13:33:00;2.80;;;2.60;;
7817;SDS011;3954;52.624;9.212;2023-04-24T13:35:26;3.10;;;2.80;;
7817;SDS011;3954;52.624;9.212;2023-04-24T13:37:54;3.10;;;2.80;;
7817;SDS011;3954;52.624;9.212;2023-04-24T13:40:20;3.10;;;2.60;;
7817;SDS011;3954;52.624;9.212;2023-04-24T13:42:46;3.83;;;3.20;;
7817;SDS011;3954;52.624;9.212;2023-04-24T13:45:12;4.53;;;3.17;;
7817;SDS011;3954;52.624;9.212;2023-04-24T13:47:38;3.80;;;3.40;;
7817;SDS011;3954;52.624;9.212;2023-04-24T13:50:06;4.33;;;3.70;;
7817;SDS011;3954;52.624;9.212;2023-04-24T13:52:32;5.23;;;4.23;;
7817;SDS011;3954;52.624;9.212;2023-04-24T13:54:59;5.13;;;4.00;;
7817;SDS011;3954;52.624;9.212;2023-04-24T13:57:25;4.83;;;4.30;;
7817;SDS011;3954;52.624;9.212;2023-04-24T13:59:53;5.60;;;4.00;;
7817;SDS011;3954;52.624;9.212;2023-04-24T14:02:20;5.90;;;3.83;;
7817;SDS011;3954;52.624;9.212;2023-04-24T14:04:46;4.57;;;3.83;;
7817;SDS011;3954;52.624;9.212;2023-04-24T14:07:13;5.07;;;3.60;;
7817;SDS011;3954;52.624;9.212;2023-04-24T14:09:39;4.00;;;3.57;;
7817;SDS011;3954;52.624;9.212;2023-04-24T14:12:07;4.90;;;3.90;;
7817;SDS011;3954;52.624;9.212;2023-04-24T14:14:33;3.60;;;3.30;;
7817;SDS011;3954;52.624;9.212;2023-04-24T14:16:59;4.83;;;3.43;;
7817;SDS011;3954;52.624;9.212;2023-04-24T14:19:25;3.60;;;3.30;;
7817;SDS011;3954;52.624;9.212;2023-04-24T14:21:51;4.77;;;3.03;;
7817;SDS011;3954;52.624;9.212;2023-04-24T14:24:18;3.93;;;3.17;;
7817;SDS011;3954;52.624;9.212;2023-04-24T14:26:44;5.50;;;3.43;;
7817;SDS011;3954;52.624;9.212;2023-04-24T14:29:11;4.10;;;2.93;;
7817;SDS011;3954;52.624;9.212;2023-04-24T14:31:37;3.30;;;2.90;;
7817;SDS011;3954;52.624;9.212;2023-04-24T14:34:03;4.13;;;3.13;;
7817;SDS011;3954;52.624;9.212;2023-04-24T14:36:29;4.43;;;3.37;;
7817;SDS011;3954;52.624;9.212;2023-04-24T14:38:56;5.40;;;3.10;;
7817;SDS011;3954;52.624;9.212;2023-04-24T14:41:22;5.17;;;3.10;;
7817;SDS011;3954;52.624;9.212;2023-04-24T14:43:48;4.67;;;4.00;;
7817;SDS011;3954;52.624;9.212;2023-04-24T14:46:15;6.50;;;3.60;;
7817;SDS011;3954;52.624;9.212;2023-04-24T14:48:41;3.80;;;3.27;;
7817;SDS011;3954;52.624;9.212;2023-04-24T14:51:07;5.63;;;3.50;;
7817;SDS011;3954;52.624;9.212;2023-04-24T14:53:33;6.50;;;3.60;;
7817;SDS011;3954;52.624;9.212;2023-04-24T14:56:00;5.63;;;3.80;;
7817;SDS011;3954;52.624;9.212;2023-04-24T14:58:26;5.93;;;3.50;;
7817;SDS011;3954;52.624;9.212;2023-04-24T15:00:52;4.00;;;3.60;;
7817;SDS011;3954;52.624;9.212;2023-04-24T15:03:20;4.83;;;3.77;;
7817;SDS011;3954;52.624;9.212;2023-04-24T15:05:46;8.20;;;3.80;;
7817;SDS011;3954;52.624;9.212;2023-04-24T15:08:13;7.43;;;4.10;;
7817;SDS011;3954;52.624;9.212;2023-04-24T15:10:39;6.57;;;3.90;;
7817;SDS011;3954;52.624;9.212;2023-04-24T15:13:05;6.17;;;4.10;;